Time;durP1;ratioP1;P1;durP2;ratioP2;P2;SDS_P1;SDS_P2;PMS_P1;PMS_P2;Temp;Humidity;BMP_temperature;BMP_pressure;BME280_temperature;BME280_humidity;BME280_pressure;Samples;Min_cycle;Max_cycle;Signal;HPM_P1;HPM_P2
2022/07/13 00:01:10;;;;;;;7.72;5.85;;;20.60;99.90;;;;;;5026497;28;20096;-63
2022/07/13 00:03:36;;;;;;;8.68;5.45;;;20.70;99.90;;;;;;5001453;28;20069;-66
2022/07/13 00:06:02;;;;;;;7.00;5.22;;;20.70;99.90;;;;;;5022632;28;20038;-67
2022/07/13 00:08:27;;;;;;;8.10;5.15;;;20.80;99.90;;;;;;4995138;28;20496;-67
2022/07/13 00:10:53;;;;;;;6.10;4.75;;;20.90;99.90;;;;;;5030531;28;20041;-63
2022/07/13 00:13:19;;;;;;;7.70;5.40;;;20.70;99.90;;;;;;5014709;28;20104;-67
2022/07/13 00:15:44;;;;;;;6.28;4.95;;;20.70;99.90;;;;;;4994967;28;20046;-67
2022/07/13 00:18:10;;;;;;;6.20;5.57;;;20.80;99.90;;;;;;5001917;28;20045;-67
2022/07/13 00:20:36;;;;;;;6.80;5.25;;;20.70;99.90;;;;;;5000836;28;20046;-64
2022/07/13 00:23:01;;;;;;;7.90;5.20;;;20.70;99.90;;;;;;5016526;28;20045;-65
2022/07/13 00:25:27;;;;;;;9.18;6.30;;;20.90;99.90;;;;;;5010570;28;20033;-66
2022/07/13 00:27:52;;;;;;;6.45;5.28;;;20.60;99.90;;;;;;5006704;28;20400;-67
2022/07/13 00:30:18;;;;;;;6.63;5.50;;;20.70;99.90;;;;;;5022062;28;20073;-65
2022/07/13 00:32:43;;;;;;;8.80;5.43;;;20.60;99.90;;;;;;4993488;28;20050;-67
2022/07/13 00:35:09;;;;;;;6.80;5.53;;;20.60;99.90;;;;;;4994718;28;20445;-67
2022/07/13 00:37:35;;;;;;;14.57;5.70;;;20.80;99.90;;;;;;5014012;28;20408;-67
2022/07/13 00:40:00;;;;;;;10.57;5.78;;;20.80;99.90;;;;;;5002592;28;20129;-66
2022/07/13 00:42:26;;;;;;;6.50;5.72;;;20.60;99.90;;;;;;4994619;28;20042;-67
2022/07/13 00:44:51;;;;;;;6.80;5.85;;;20.60;99.90;;;;;;4993460;28;20042;-67
2022/07/13 00:47:17;;;;;;;7.10;5.53;;;20.90;99.90;;;;;;5017242;28;20042;-66
2022/07/13 00:49:43;;;;;;;6.32;5.13;;;20.90;99.90;;;;;;5010880;28;20089;-67
2022/07/13 00:52:10;;;;;;;9.40;6.13;;;20.90;99.90;;;;;;4994495;28;20129;-67
2022/07/13 00:54:37;;;;;;;7.15;5.72;;;21.00;99.90;;;;;;4994473;28;20448;-67
2022/07/13 00:57:06;;;;;;;7.75;5.45;;;20.90;99.90;;;;;;5022162;28;20048;-67
2022/07/13 00:59:34;;;;;;;8.57;5.45;;;20.90;99.90;;;;;;4994283;28;20046;-67
2022/07/13 01:02:00;;;;;;;6.63;5.72;;;20.90;99.90;;;;;;4993909;28;20050;-67
2022/07/13 01:04:25;;;;;;;5.45;4.80;;;21.00;99.90;;;;;;4994330;28;20129;-67
2022/07/13 01:06:54;;;;;;;7.35;5.70;;;21.00;99.90;;;;;;4992943;28;20388;-63
2022/07/13 01:09:20;;;;;;;6.72;6.03;;;21.00;99.90;;;;;;4993811;28;20038;-67
2022/07/13 01:11:46;;;;;;;6.57;5.85;;;21.00;99.90;;;;;;4994124;28;20046;-67
2022/07/13 01:14:13;;;;;;;7.05;5.60;;;20.90;99.90;;;;;;5021710;28;20511;-67
2022/07/13 01:16:39;;;;;;;6.35;5.38;;;21.00;99.90;;;;;;4993819;28;20084;-67
2022/07/13 01:19:06;;;;;;;7.03;5.70;;;20.70;99.90;;;;;;5020219;28;20045;-67
2022/07/13 01:21:35;;;;;;;7.03;5.60;;;20.80;99.90;;;;;;5005170;28;20042;-66
2022/07/13 01:24:00;;;;;;;6.75;5.45;;;20.90;99.90;;;;;;5003782;28;20042;-67
2022/07/13 01:26:26;;;;;;;8.88;5.90;;;20.90;99.90;;;;;;5012826;28;20547;-67
2022/07/13 01:28:52;;;;;;;6.63;5.47;;;20.80;99.90;;;;;;5017468;28;20035;-66
2022/07/13 01:31:38;;;;;;;6.25;5.38;;;21.10;99.90;;;;;;5021416;28;20076;-62
2022/07/13 01:34:04;;;;;;;7.53;5.45;;;21.10;99.90;;;;;;4992176;28;20048;-66
2022/07/13 01:36:30;;;;;;;6.05;5.03;;;21.00;99.90;;;;;;4995353;28;20476;-67
2022/07/13 01:38:57;;;;;;;6.82;5.40;;;21.10;99.90;;;;;;5019036;28;20099;-64
2022/07/13 01:41:24;;;;;;;8.50;5.65;;;21.20;99.90;;;;;;4993415;28;20046;-63
2022/07/13 01:43:50;;;;;;;6.72;5.45;;;20.90;99.90;;;;;;4992929;28;20042;-63
2022/07/13 01:46:16;;;;;;;8.15;5.35;;;20.90;99.90;;;;;;5002902;28;20044;-63
2022/07/13 01:48:42;;;;;;;7.95;5.30;;;21.00;99.90;;;;;;5022083;28;20076;-64
2022/07/13 01:51:07;;;;;;;7.90;4.95;;;20.80;99.90;;;;;;5011967;28;20551;-63
2022/07/13 01:53:33;;;;;;;7.22;5.10;;;21.10;99.90;;;;;;5030060;28;20037;-63
2022/07/13 01:55:59;;;;;;;6.03;5.43;;;20.90;99.90;;;;;;5006502;28;20087;-64
2022/07/13 01:58:26;;;;;;;5.97;4.90;;;20.90;99.90;;;;;;5032711;28;20094;-67
2022/07/13 02:00:52;;;;;;;6.07;4.75;;;21.00;99.90;;;;;;4992499;28;20045;-63
2022/07/13 02:03:18;;;;;;;7.30;5.35;;;20.80;99.90;;;;;;4993072;28;20049;-67
2022/07/13 02:05:43;;;;;;;7.85;5.05;;;20.80;99.90;;;;;;4999183;28;20042;-67
2022/07/13 02:08:09;;;;;;;6.25;4.80;;;20.90;99.90;;;;;;5013672;28;20035;-67
2022/07/13 02:10:37;;;;;;;8.13;4.85;;;21.10;99.90;;;;;;4993116;28;20061;-67
2022/07/13 02:13:08;;;;;;;11.05;4.97;;;20.80;99.90;;;;;;5008431;28;20402;-67
2022/07/13 02:15:34;;;;;;;7.53;4.63;;;21.00;99.90;;;;;;5003689;28;20080;-66
2022/07/13 02:18:00;;;;;;;5.47;4.60;;;20.90;99.90;;;;;;5004586;28;20033;-66
2022/07/13 02:20:26;;;;;;;8.18;5.38;;;21.00;99.90;;;;;;5022675;28;20506;-67
2022/07/13 02:22:52;;;;;;;8.27;4.85;;;20.80;99.90;;;;;;5007780;28;20044;-67
2022/07/13 02:25:17;;;;;;;5.35;4.82;;;21.10;99.90;;;;;;5019639;28;20037;-66
2022/07/13 02:27:44;;;;;;;5.28;4.60;;;20.80;99.90;;;;;;4993130;28;20048;-67
2022/07/13 02:30:12;;;;;;;4.70;4.18;;;20.70;99.90;;;;;;5020333;28;20457;-66
2022/07/13 02:32:38;;;;;;;7.70;5.05;;;20.80;99.90;;;;;;4991502;28;20049;-67
2022/07/13 02:35:04;;;;;;;5.47;4.40;;;20.80;99.90;;;;;;4993124;28;20030;-67
2022/07/13 02:37:30;;;;;;;5.45;4.95;;;20.90;99.90;;;;;;5010991;28;20125;-67
2022/07/13 02:39:56;;;;;;;6.57;4.57;;;20.80;99.90;;;;;;5013863;28;20096;-66
2022/07/13 02:42:23;;;;;;;6.63;5.22;;;20.70;99.90;;;;;;5012161;28;20524;-67
2022/07/13 02:44:52;;;;;;;7.78;4.25;;;20.80;99.90;;;;;;5012373;28;20491;-66
2022/07/13 02:47:18;;;;;;;6.45;4.22;;;20.80;99.90;;;;;;5012205;28;20077;-67
2022/07/13 02:49:44;;;;;;;5.75;3.90;;;20.90;99.90;;;;;;5012609;28;20061;-67
2022/07/13 02:52:10;;;;;;;7.03;4.50;;;20.70;99.90;;;;;;4999999;28;20062;-67
2022/07/13 02:54:36;;;;;;;4.78;4.10;;;20.90;99.90;;;;;;4995603;28;20031;-66
2022/07/13 02:57:02;;;;;;;6.75;4.35;;;20.70;99.90;;;;;;5005954;28;20050;-66
2022/07/13 02:59:32;;;;;;;8.70;4.30;;;20.80;99.90;;;;;;5012013;28;20050;-66
2022/07/13 03:01:57;;;;;;;5.55;4.70;;;20.70;99.90;;;;;;5014662;28;20134;-67
2022/07/13 03:04:23;;;;;;;8.02;3.95;;;20.90;99.90;;;;;;5004888;28;20516;-66
2022/07/13 03:06:49;;;;;;;8.50;4.50;;;20.70;99.90;;;;;;4996481;28;20037;-67
2022/07/13 03:09:14;;;;;;;5.38;4.38;;;20.80;99.90;;;;;;4995336;28;20042;-66
2022/07/13 03:11:40;;;;;;;6.15;4.00;;;20.90;99.90;;;;;;5004984;28;20049;-67
2022/07/13 03:14:05;;;;;;;5.95;4.43;;;20.70;99.90;;;;;;5023909;28;20054;-67
2022/07/13 03:16:32;;;;;;;5.30;4.43;;;20.70;99.90;;;;;;5013422;28;20049;-67
2022/07/13 03:18:58;;;;;;;4.28;3.88;;;20.80;99.90;;;;;;4996190;28;20511;-67
2022/07/13 03:21:23;;;;;;;6.50;4.55;;;20.80;99.90;;;;;;4996006;28;20038;-67
2022/07/13 03:23:49;;;;;;;6.50;4.38;;;20.80;99.90;;;;;;5009258;28;20041;-67
2022/07/13 03:26:14;;;;;;;5.90;4.60;;;21.10;99.90;;;;;;5010384;28;20035;-67
2022/07/13 03:28:40;;;;;;;6.25;5.05;;;20.90;99.90;;;;;;5023313;28;20031;-67
2022/07/13 03:31:05;;;;;;;4.57;3.88;;;20.80;99.90;;;;;;5016761;28;20045;-67
2022/07/13 03:33:31;;;;;;;5.70;3.38;;;20.70;99.90;;;;;;5030361;28;20049;-67
2022/07/13 03:35:56;;;;;;;5.20;3.42;;;20.80;99.90;;;;;;4995985;28;20038;-67
2022/07/13 03:38:22;;;;;;;5.03;4.10;;;20.60;99.90;;;;;;5023610;28;20039;-67
2022/07/13 03:40:48;;;;;;;5.80;4.35;;;20.50;99.90;;;;;;4994209;28;20058;-66
2022/07/13 03:43:13;;;;;;;7.50;4.05;;;20.60;99.90;;;;;;4995746;28;20082;-66
2022/07/13 03:45:39;;;;;;;4.15;3.75;;;20.80;99.90;;;;;;5022681;28;20440;-67
2022/07/13 03:48:07;;;;;;;5.03;3.90;;;20.50;99.90;;;;;;5005405;28;20389;-67
2022/07/13 03:50:33;;;;;;;6.70;3.80;;;20.60;99.90;;;;;;5029563;28;20057;-67
2022/07/13 03:52:59;;;;;;;3.83;3.20;;;20.60;99.90;;;;;;5019815;28;20039;-67
2022/07/13 03:55:24;;;;;;;4.32;3.30;;;20.30;99.90;;;;;;5021379;28;20442;-67
2022/07/13 03:57:50;;;;;;;4.93;3.72;;;20.50;99.90;;;;;;4995881;28;20117;-66
2022/07/13 04:00:16;;;;;;;4.22;3.17;;;20.50;99.90;;;;;;5017193;28;20045;-67
2022/07/13 04:02:41;;;;;;;4.55;3.70;;;20.50;99.90;;;;;;5027680;28;20041;-67
2022/07/13 04:05:07;;;;;;;4.15;3.75;;;20.60;99.90;;;;;;4994416;28;20409;-63
2022/07/13 04:07:33;;;;;;;4.50;3.63;;;20.20;99.90;;;;;;4995224;28;20045;-63
2022/07/13 04:09:58;;;;;;;8.40;3.95;;;20.30;99.90;;;;;;4995044;28;20109;-64
2022/07/13 04:12:24;;;;;;;4.43;4.03;;;20.30;99.90;;;;;;4995161;28;20488;-63
2022/07/13 04:14:50;;;;;;;5.78;4.65;;;20.30;99.90;;;;;;5033903;28;20495;-63
2022/07/13 04:17:16;;;;;;;5.95;4.63;;;20.50;99.90;;;;;;5033248;28;20060;-63
2022/07/13 04:19:41;;;;;;;5.20;4.15;;;20.10;99.90;;;;;;4998631;28;20117;-63
2022/07/13 04:22:07;;;;;;;6.22;4.38;;;20.30;99.90;;;;;;4995025;28;20122;-63
2022/07/13 04:24:33;;;;;;;6.05;4.57;;;20.40;99.90;;;;;;5021243;28;20491;-64
2022/07/13 04:26:58;;;;;;;7.50;4.40;;;20.20;99.90;;;;;;5009748;28;20373;-63
2022/07/13 04:29:24;;;;;;;5.43;4.90;;;20.40;99.90;;;;;;5007452;28;20520;-63
2022/07/13 04:31:50;;;;;;;6.63;4.68;;;20.30;99.90;;;;;;5022628;28;20099;-63
2022/07/13 04:34:16;;;;;;;6.05;4.85;;;20.10;99.90;;;;;;5018074;28;20096;-63
2022/07/13 04:36:42;;;;;;;5.80;5.20;;;20.10;99.90;;;;;;5026824;28;20396;-63
2022/07/13 04:39:08;;;;;;;6.97;5.00;;;20.40;99.90;;;;;;4994493;28;20046;-64
2022/07/13 04:41:34;;;;;;;6.13;5.13;;;20.00;99.90;;;;;;5020634;28;20133;-63
2022/07/13 04:43:59;;;;;;;6.57;4.45;;;20.20;99.90;;;;;;4993396;28;20053;-63
2022/07/13 04:46:25;;;;;;;5.32;4.43;;;20.10;99.90;;;;;;5002288;28;20037;-63
2022/07/13 04:48:51;;;;;;;4.90;4.25;;;20.10;99.90;;;;;;5008484;28;20053;-63
2022/07/13 04:51:16;;;;;;;4.70;4.10;;;20.20;99.90;;;;;;4994644;28;20053;-63
2022/07/13 04:53:42;;;;;;;4.55;4.10;;;20.40;99.90;;;;;;4994470;28;20542;-63
2022/07/13 04:56:07;;;;;;;5.75;4.43;;;20.10;99.90;;;;;;5004819;28;20476;-64
2022/07/13 04:58:33;;;;;;;5.82;4.57;;;20.10;99.90;;;;;;5010937;28;20503;-63
2022/07/13 05:01:00;;;;;;;5.15;3.58;;;19.90;99.90;;;;;;4994373;28;20497;-63
2022/07/13 05:03:26;;;;;;;6.95;4.40;;;20.40;99.90;;;;;;4993120;28;20488;-63
2022/07/13 05:05:52;;;;;;;11.00;4.22;;;20.20;99.90;;;;;;4994246;28;20398;-63
2022/07/13 05:08:18;;;;;;;5.07;4.15;;;20.40;99.90;;;;;;4994069;28;20110;-63
2022/07/13 05:10:43;;;;;;;7.70;4.43;;;20.40;99.90;;;;;;5007530;28;20404;-63
2022/07/13 05:13:09;;;;;;;6.35;4.10;;;20.40;99.90;;;;;;4992788;28;20058;-63
2022/07/13 05:15:34;;;;;;;5.30;4.22;;;20.30;99.90;;;;;;4994193;28;20108;-63
2022/07/13 05:17:59;;;;;;;7.70;3.90;;;20.50;99.90;;;;;;4992821;28;20464;-64
2022/07/13 05:20:25;;;;;;;6.30;4.10;;;20.20;99.90;;;;;;4992732;28;20481;-63
2022/07/13 05:22:51;;;;;;;5.45;4.20;;;20.40;99.90;;;;;;4993818;28;20107;-63
2022/07/13 05:25:16;;;;;;;6.10;4.78;;;20.40;99.90;;;;;;4993738;28;20382;-64
2022/07/13 05:27:42;;;;;;;4.70;4.20;;;20.50;99.90;;;;;;4993971;28;20477;-63
2022/07/13 05:30:08;;;;;;;7.38;4.07;;;20.60;99.90;;;;;;4993862;28;20084;-63
2022/07/13 05:32:33;;;;;;;5.32;4.80;;;20.40;99.90;;;;;;5008884;28;20053;-63
2022/07/13 05:34:59;;;;;;;7.82;5.18;;;20.70;99.90;;;;;;4992418;28;20042;-63
2022/07/13 05:37:24;;;;;;;8.80;4.82;;;20.60;99.90;;;;;;4993654;28;20058;-64
2022/07/13 05:39:50;;;;;;;6.65;4.82;;;20.60;99.90;;;;;;4991894;28;20046;-64
2022/07/13 05:42:16;;;;;;;7.35;4.93;;;20.70;99.90;;;;;;4992049;28;20062;-63
2022/07/13 05:44:41;;;;;;;6.45;4.53;;;20.70;99.90;;;;;;5020335;28;20091;-63
2022/07/13 05:47:07;;;;;;;5.25;4.03;;;20.80;99.90;;;;;;5012854;28;20064;-63
2022/07/13 05:49:32;;;;;;;5.80;4.63;;;20.70;99.90;;;;;;5004891;28;20052;-63
2022/07/13 05:51:59;;;;;;;8.57;5.05;;;21.00;99.90;;;;;;5007477;28;20496;-63
2022/07/13 05:54:24;;;;;;;7.40;5.10;;;20.60;99.90;;;;;;5011901;28;20046;-64
2022/07/13 05:56:50;;;;;;;5.75;5.05;;;20.90;99.90;;;;;;5009085;28;20060;-63
2022/07/13 05:59:15;;;;;;;8.02;5.55;;;20.90;99.90;;;;;;5011768;28;20053;-63
2022/07/13 06:01:41;;;;;;;6.10;5.03;;;21.00;99.90;;;;;;5012817;28;20048;-63
2022/07/13 06:04:06;;;;;;;8.63;5.60;;;21.20;99.90;;;;;;5016082;28;20108;-63
2022/07/13 06:06:32;;;;;;;10.13;6.43;;;21.40;99.90;;;;;;4993607;28;20090;-66
2022/07/13 06:08:57;;;;;;;11.02;6.95;;;21.80;99.90;;;;;;5009109;28;20045;-66
2022/07/13 06:11:23;;;;;;;7.72;6.40;;;21.50;99.90;;;;;;5007348;28;20057;-64
2022/07/13 06:13:49;;;;;;;9.50;7.00;;;21.60;99.90;;;;;;5018203;28;20037;-64
2022/07/13 06:16:14;;;;;;;11.15;6.30;;;21.80;99.90;;;;;;5008509;28;20037;-64
2022/07/13 06:18:40;;;;;;;13.23;6.43;;;22.00;99.90;;;;;;5005000;28;20046;-64
2022/07/13 06:21:05;;;;;;;9.27;7.55;;;22.20;99.90;;;;;;5005608;28;20500;-64
2022/07/13 06:23:31;;;;;;;9.45;7.25;;;22.60;99.90;;;;;;5008786;28;20550;-64
2022/07/13 06:25:58;;;;;;;9.98;7.07;;;22.90;99.90;;;;;;5016007;28;20140;-64
2022/07/13 06:28:24;;;;;;;10.80;7.65;;;23.20;99.90;;;;;;5011261;28;20454;-63
2022/07/13 06:30:49;;;;;;;9.45;7.13;;;23.70;99.90;;;;;;5012386;28;20133;-63
2022/07/13 06:33:15;;;;;;;9.30;7.13;;;23.80;99.90;;;;;;5012934;28;20044;-64
2022/07/13 06:35:40;;;;;;;10.57;7.30;;;25.30;99.90;;;;;;5016869;28;20048;-63
2022/07/13 06:38:06;;;;;;;11.98;7.00;;;23.90;99.90;;;;;;5016722;28;20156;-64
2022/07/13 06:40:31;;;;;;;11.23;7.65;;;23.90;99.90;;;;;;5016246;28;20133;-64
2022/07/13 06:42:57;;;;;;;10.35;8.35;;;23.70;99.90;;;;;;5009323;28;20054;-63
2022/07/13 06:45:22;;;;;;;12.48;7.28;;;23.70;99.90;;;;;;5015213;28;20095;-63
2022/07/13 06:47:50;;;;;;;9.55;7.10;;;23.70;99.90;;;;;;5015378;28;20129;-64
2022/07/13 06:50:15;;;;;;;10.10;7.30;;;23.60;99.90;;;;;;5016750;28;20496;-64
2022/07/13 06:52:43;;;;;;;11.85;7.28;;;23.50;99.90;;;;;;5016480;28;20037;-63
2022/07/13 06:55:08;;;;;;;10.00;7.68;;;23.20;99.90;;;;;;5007263;28;20428;-64
2022/07/13 06:57:35;;;;;;;12.30;7.78;;;23.10;99.90;;;;;;5015159;28;20052;-63
2022/07/13 07:00:02;;;;;;;11.25;8.20;;;22.90;99.90;;;;;;5015554;28;20042;-63
2022/07/13 07:02:27;;;;;;;11.98;8.10;;;22.80;99.90;;;;;;5014827;28;20088;-63
2022/07/13 07:04:54;;;;;;;11.30;7.75;;;22.60;99.90;;;;;;5017083;28;20034;-64
2022/07/13 07:07:20;;;;;;;14.23;7.43;;;22.70;99.90;;;;;;5007859;28;20065;-64
2022/07/13 07:09:45;;;;;;;14.25;8.38;;;22.70;99.90;;;;;;5015044;28;20538;-63
2022/07/13 07:12:11;;;;;;;10.82;7.97;;;22.70;99.90;;;;;;5016838;28;20487;-64
2022/07/13 07:14:37;;;;;;;11.00;7.05;;;22.60;99.90;;;;;;5016285;28;20503;-63
2022/07/13 07:17:03;;;;;;;10.38;7.93;;;22.50;99.90;;;;;;5016719;28;20488;-63
2022/07/13 07:19:29;;;;;;;13.15;7.88;;;24.10;99.90;;;;;;5008723;28;20040;-64
2022/07/13 07:21:55;;;;;;;11.85;7.72;;;22.80;99.90;;;;;;5016534;28;20038;-63
2022/07/13 07:24:21;;;;;;;9.38;7.85;;;22.70;99.90;;;;;;5016051;28;20404;-63
2022/07/13 07:26:47;;;;;;;9.45;8.07;;;22.80;99.90;;;;;;5004223;28;20041;-64
2022/07/13 07:29:14;;;;;;;13.70;7.82;;;23.00;99.90;;;;;;5015260;28;20448;-64
2022/07/13 07:31:39;;;;;;;10.85;7.55;;;22.80;99.90;;;;;;5011980;28;20453;-64
2022/07/13 07:34:05;;;;;;;12.55;8.18;;;22.80;99.90;;;;;;5013996;28;20049;-64
2022/07/13 07:36:31;;;;;;;29.58;8.63;;;23.00;99.90;;;;;;5001561;28;20046;-63
2022/07/13 07:38:56;;;;;;;12.82;8.07;;;23.10;99.90;;;;;;5014717;28;20036;-65
2022/07/13 07:41:22;;;;;;;10.40;7.25;;;23.00;99.90;;;;;;5013300;28;20609;-64
2022/07/13 07:43:48;;;;;;;10.90;5.97;;;23.10;99.90;;;;;;5010836;28;20463;-64
2022/07/13 07:46:14;;;;;;;10.57;6.07;;;23.30;99.90;;;;;;5022156;28;20049;-65
2022/07/13 07:48:39;;;;;;;12.85;6.05;;;23.50;99.90;;;;;;5012247;28;20068;-65
2022/07/13 07:51:05;;;;;;;7.30;5.50;;;23.50;99.90;;;;;;5012935;28;20037;-64
2022/07/13 07:53:31;;;;;;;8.98;5.38;;;23.40;99.90;;;;;;5011544;28;20131;-65
2022/07/13 07:55:57;;;;;;;11.15;5.18;;;23.60;99.90;;;;;;5011246;28;20480;-63
2022/07/13 07:58:22;;;;;;;7.50;5.25;;;23.60;99.90;;;;;;5012011;28;20049;-64
2022/07/13 08:00:48;;;;;;;7.65;5.85;;;23.80;99.90;;;;;;5013051;28;20046;-63
2022/07/13 08:03:13;;;;;;;9.05;6.07;;;23.80;99.90;;;;;;5012947;28;20080;-66
2022/07/13 08:05:41;;;;;;;10.13;5.70;;;23.70;99.90;;;;;;5011964;28;20428;-65
2022/07/13 08:08:06;;;;;;;8.48;6.35;;;23.60;99.90;;;;;;5005703;28;20041;-63
2022/07/13 08:10:32;;;;;;;9.02;6.25;;;23.70;99.90;;;;;;5012246;28;20076;-64
2022/07/13 08:13:00;;;;;;;7.40;5.18;;;23.90;99.90;;;;;;5010872;28;20118;-64
2022/07/13 08:15:27;;;;;;;11.30;5.18;;;23.80;99.90;;;;;;5011013;28;20042;-63
2022/07/13 08:17:53;;;;;;;9.10;5.72;;;23.80;99.90;;;;;;5012537;28;20033;-63
2022/07/13 08:20:18;;;;;;;9.38;4.22;;;23.90;99.90;;;;;;5011126;28;20523;-63
2022/07/13 08:22:44;;;;;;;7.75;3.72;;;24.20;99.90;;;;;;5012237;28;20047;-63
2022/07/13 08:25:09;;;;;;;7.28;4.50;;;23.90;99.90;;;;;;5011597;28;20047;-62
2022/07/13 08:27:35;;;;;;;8.32;3.80;;;23.80;99.90;;;;;;5011391;28;20042;-62
2022/07/13 08:30:00;;;;;;;9.95;4.35;;;23.80;99.90;;;;;;5011087;28;20042;-64
2022/07/13 08:32:27;;;;;;;8.30;5.45;;;23.80;99.90;;;;;;5009374;28;20084;-62
2022/07/13 08:40:21;;;;;;;8.40;3.92;;;24.10;99.90;;;;;;5010364;28;20058;-62
2022/07/13 08:42:47;;;;;;;6.72;3.15;;;25.90;99.90;;;;;;5010547;28;20116;-62
2022/07/13 08:45:13;;;;;;;5.20;3.15;;;24.40;99.90;;;;;;5012503;28;20542;-67
2022/07/13 08:47:41;;;;;;;6.47;3.28;;;24.50;99.90;;;;;;5012528;28;20029;-63
2022/07/13 08:50:08;;;;;;;6.95;3.65;;;24.30;99.90;;;;;;5017681;28;20641;-64
2022/07/13 08:52:39;;;;;;;6.13;4.43;;;24.70;99.90;;;;;;5012210;28;20042;-64
2022/07/13 08:55:06;;;;;;;7.63;4.65;;;24.50;99.90;;;;;;5012713;28;20034;-63
2022/07/13 08:57:37;;;;;;;6.03;4.15;;;24.30;99.90;;;;;;5012676;28;20038;-66
2022/07/13 09:00:11;;;;;;;6.25;4.40;;;24.70;99.90;;;;;;5012644;28;20042;-64
2022/07/13 09:02:37;;;;;;;;;;;24.50;99.90;;;;;;5008344;28;20033;-63
2022/07/13 09:05:05;;;;;;;4.22;1.92;;;24.60;99.90;;;;;;5012441;28;19929;-63
2022/07/13 09:07:31;;;;;;;3.42;2.10;;;24.70;99.90;;;;;;5011130;28;20041;-63
2022/07/13 09:09:57;;;;;;;4.40;2.45;;;24.30;99.90;;;;;;5011054;28;20034;-65
2022/07/13 09:12:24;;;;;;;5.00;3.30;;;24.90;99.90;;;;;;5012545;28;20041;-64
2022/07/13 09:15:00;;;;;;;4.93;3.05;;;24.60;99.90;;;;;;5010768;28;20092;-63
2022/07/13 09:17:33;;;;;;;3.65;2.13;;;24.80;99.90;;;;;;5012188;28;20044;-64
2022/07/13 09:20:15;;;;;;;4.20;1.58;;;24.70;99.90;;;;;;5010922;28;20041;-63
2022/07/13 09:22:51;;;;;;;2.42;1.35;;;24.90;99.90;;;;;;5005123;28;20507;-63
2022/07/13 09:25:37;;;;;;;3.28;1.40;;;25.10;99.90;;;;;;5012455;28;20176;-63
2022/07/13 09:28:16;;;;;;;4.55;1.90;;;24.90;99.90;;;;;;5012058;28;20172;-63
2022/07/13 09:30:44;;;;;;;3.33;1.58;;;24.80;99.90;;;;;;5006555;28;20484;-63
2022/07/13 09:33:10;;;;;;;4.35;1.23;;;24.90;99.90;;;;;;5007222;28;20859;-64
2022/07/13 09:35:39;;;;;;;6.43;1.60;;;24.90;99.90;;;;;;5010878;28;20068;-63
2022/07/13 09:38:04;;;;;;;3.25;1.40;;;25.10;99.90;;;;;;5012074;28;20038;-63
2022/07/13 09:40:30;;;;;;;3.05;1.80;;;25.10;99.90;;;;;;5010073;28;20053;-63
2022/07/13 09:48:25;;;;;;;2.17;1.00;;;25.50;99.90;;;;;;5011927;28;20516;-64
2022/07/13 09:50:54;;;;;;;2.13;0.80;;;25.50;99.90;;;;;;5003290;28;20072;-64
2022/07/13 09:53:33;;;;;;;3.47;1.15;;;25.60;99.90;;;;;;5030138;28;20530;-64
2022/07/13 09:56:03;;;;;;;3.33;0.88;;;25.50;99.90;;;;;;5011593;28;20487;-64
2022/07/13 09:58:39;;;;;;;2.33;0.85;;;25.70;99.90;;;;;;5020599;28;20051;-64
2022/07/13 10:01:06;;;;;;;4.68;1.27;;;25.80;99.90;;;;;;5029684;28;20112;-64
2022/07/13 10:03:32;;;;;;;2.28;1.10;;;27.20;99.90;;;;;;5035595;28;20123;-64
2022/07/13 10:06:00;;;;;;;3.63;1.40;;;25.90;99.90;;;;;;5010391;28;20431;-64
2022/07/13 10:08:27;;;;;;;5.75;1.20;;;25.80;99.90;;;;;;5002398;28;20116;-63
2022/07/13 10:10:52;;;;;;;7.15;1.75;;;26.00;99.90;;;;;;5002810;28;20092;-64
2022/07/13 10:13:19;;;;;;;2.83;1.50;;;25.90;99.90;;;;;;5017708;28;20042;-62
2022/07/13 10:15:45;;;;;;;7.05;1.92;;;25.80;99.90;;;;;;5004025;28;20520;-65
2022/07/13 10:18:19;;;;;;;3.53;1.20;;;25.90;99.90;;;;;;5020728;28;20378;-62
2022/07/13 10:20:50;;;;;;;3.13;1.00;;;26.00;99.90;;;;;;5016306;28;20052;-62
2022/07/13 10:23:39;;;;;;;2.45;1.25;;;26.00;99.90;;;;;;5027505;28;20038;-62
2022/07/13 10:26:19;;;;;;;4.28;1.35;;;26.40;99.90;;;;;;5029954;28;20041;-63
2022/07/13 10:29:01;;;;;;;4.97;1.20;;;26.20;99.90;;;;;;5007965;28;20038;-63
2022/07/13 10:31:28;;;;;;;4.10;1.10;;;26.10;99.90;;;;;;5009247;28;20050;-63
2022/07/13 10:33:54;;;;;;;3.30;1.23;;;26.50;99.90;;;;;;5030670;28;20053;-65
2022/07/13 10:36:47;;;;;;;4.47;1.08;;;26.30;99.90;;;;;;4999573;28;20038;-63
2022/07/13 10:39:14;;;;;;;3.45;1.33;;;26.40;99.90;;;;;;5004997;28;20048;-63
2022/07/13 10:42:02;;;;;;;5.60;1.15;;;26.50;99.90;;;;;;5010938;28;20081;-62
2022/07/13 10:44:31;;;;;;;4.18;1.10;;;26.40;99.90;;;;;;5008114;28;20084;-63
2022/07/13 10:46:57;;;;;;;4.28;1.20;;;26.70;99.90;;;;;;5001241;28;20480;-65
2022/07/13 10:49:32;;;;;;;3.38;1.20;;;26.50;99.90;;;;;;5007113;28;20052;-62
2022/07/13 10:52:20;;;;;;;3.95;1.00;;;26.50;99.90;;;;;;5007242;28;20041;-62
2022/07/13 10:55:04;;;;;;;3.42;0.90;;;26.50;99.90;;;;;;5006474;28;20084;-63
2022/07/13 10:57:31;;;;;;;7.38;1.35;;;26.60;99.90;;;;;;5007098;28;20512;-61
2022/07/13 11:00:19;;;;;;;3.67;1.10;;;26.60;99.90;;;;;;5010269;28;20042;-64
2022/07/13 11:02:48;;;;;;;5.15;1.73;;;26.80;99.90;;;;;;5009565;28;20030;-61
2022/07/13 11:05:17;;;;;;;3.13;1.05;;;26.70;99.90;;;;;;5009304;28;20432;-62
2022/07/13 11:07:45;;;;;;;3.33;0.80;;;26.70;99.90;;;;;;5008381;28;20396;-65
2022/07/13 11:10:19;;;;;;;2.85;1.27;;;27.10;99.90;;;;;;5003678;28;20484;-64
2022/07/13 11:13:09;;;;;;;5.55;1.27;;;26.80;99.90;;;;;;4996275;28;20048;-64
2022/07/13 11:15:42;;;;;;;4.65;0.93;;;26.80;99.90;;;;;;5011376;28;20387;-63
2022/07/13 11:18:31;;;;;;;3.13;1.05;;;27.00;99.90;;;;;;5014371;28;20413;-62
2022/07/13 11:21:10;;;;;;;5.35;1.23;;;26.80;99.90;;;;;;4994257;28;20054;-64
2022/07/13 11:26:26;;;;;;;10.10;1.75;;;27.40;99.90;;;;;;5013674;28;20046;-65
2022/07/13 11:29:17;;;;;;;14.63;3.15;;;27.40;99.90;;;;;;5013266;28;20042;-66
2022/07/13 11:31:44;;;;;;;4.03;1.55;;;27.10;99.90;;;;;;5005758;28;20484;-65
2022/07/13 11:34:09;;;;;;;8.43;2.25;;;27.30;99.90;;;;;;5013709;28;20527;-64
2022/07/13 11:36:39;;;;;;;3.03;1.98;;;27.10;99.90;;;;;;5013964;28;20044;-64
2022/07/13 11:39:24;;;;;;;4.78;2.00;;;27.10;99.90;;;;;;5014182;28;20085;-64
2022/07/13 11:41:51;;;;;;;7.18;2.58;;;27.30;99.90;;;;;;5012126;28;20085;-64
2022/07/13 11:44:24;;;;;;;5.95;2.28;;;27.10;99.90;;;;;;5005463;28;20487;-64
2022/07/13 11:46:51;;;;;;;7.90;1.92;;;26.90;99.90;;;;;;5012250;28;20037;-64
2022/07/13 11:49:16;;;;;;;4.97;1.63;;;27.40;99.90;;;;;;5007995;28;20076;-66
2022/07/13 11:51:46;;;;;;;4.07;1.80;;;27.20;99.90;;;;;;5016763;28;20132;-65
2022/07/13 11:54:14;;;;;;;8.95;2.05;;;27.40;99.90;;;;;;5003678;28;20045;-64
2022/07/13 11:56:57;;;;;;;5.55;1.67;;;27.40;99.90;;;;;;5024197;28;20072;-65
2022/07/13 11:59:36;;;;;;;4.68;1.52;;;27.30;99.90;;;;;;5019372;28;20415;-64
2022/07/13 12:02:04;;;;;;;4.18;1.38;;;27.30;99.90;;;;;;5033372;28;20132;-65
2022/07/13 12:04:30;;;;;;;4.30;1.35;;;27.00;99.90;;;;;;5003884;28;20033;-66
2022/07/13 12:07:19;;;;;;;3.10;1.10;;;27.10;99.90;;;;;;5006445;28;20109;-64
2022/07/13 12:09:50;;;;;;;3.20;1.05;;;27.10;99.90;;;;;;5020944;28;20541;-64
2022/07/13 12:12:17;;;;;;;2.25;0.90;;;27.00;99.90;;;;;;5023641;28;20529;-65
2022/07/13 12:14:43;;;;;;;3.70;1.17;;;27.00;99.90;;;;;;5000683;28;20068;-65
2022/07/13 12:17:09;;;;;;;5.93;1.27;;;27.00;99.90;;;;;;5024339;28;20051;-64
2022/07/13 12:19:35;;;;;;;3.50;1.15;;;27.00;99.90;;;;;;5008882;28;20125;-65
2022/07/13 12:22:00;;;;;;;4.60;1.42;;;26.70;99.90;;;;;;5010854;28;20069;-66
2022/07/13 12:24:29;;;;;;;3.75;0.88;;;26.80;99.90;;;;;;5012708;28;20044;-64
2022/07/13 12:26:55;;;;;;;2.53;1.02;;;26.90;99.90;;;;;;4998657;28;20484;-66
2022/07/13 12:29:28;;;;;;;3.17;0.88;;;26.70;99.90;;;;;;5026773;28;20086;-64
2022/07/13 12:31:54;;;;;;;5.05;1.10;;;28.10;99.90;;;;;;5015356;28;20033;-64
2022/07/13 12:34:20;;;;;;;2.40;1.20;;;26.80;99.90;;;;;;5030428;28;20526;-64
2022/07/13 12:36:50;;;;;;;4.78;1.30;;;26.80;99.90;;;;;;5031061;28;20372;-65
2022/07/13 12:39:18;;;;;;;3.35;1.15;;;26.60;99.90;;;;;;5023621;28;20103;-64
2022/07/13 12:41:55;;;;;;;3.00;1.25;;;26.50;99.90;;;;;;5029797;28;20060;-65
2022/07/13 12:44:28;;;;;;;4.07;1.38;;;26.60;99.90;;;;;;5017582;28;20048;-64
2022/07/13 12:46:55;;;;;;;1.48;0.85;;;26.60;99.90;;;;;;5012850;28;20042;-64
2022/07/13 12:49:39;;;;;;;1.98;0.80;;;26.40;99.90;;;;;;5018460;28;20072;-64
2022/07/13 12:52:05;;;;;;;;;;;26.50;99.90;;;;;;5001839;28;20049;-66
2022/07/13 12:54:47;;;;;;;4.05;1.45;;;28.00;99.90;;;;;;5018585;28;19918;-63
2022/07/13 12:57:27;;;;;;;3.15;1.10;;;26.30;99.90;;;;;;4993305;28;20051;-64
2022/07/13 13:00:12;;;;;;;7.30;1.60;;;26.60;99.90;;;;;;5020049;28;20056;-63
2022/07/13 13:02:40;;;;;;;3.30;1.38;;;26.50;99.90;;;;;;5002094;28;20046;-65